Time;durP1;ratioP1;P1;durP2;ratioP2;P2;SDS_P1;SDS_P2;PMS_P1;PMS_P2;Temp;Humidity;BMP_temperature;BMP_pressure;BME280_temperature;BME280_humidity;BME280_pressure;Samples;Min_cycle;Max_cycle;Signal;HPM_P1;HPM_P2
2022/07/07 00:01:19;;;;;;;1.58;1.35;;;;;;;;;;5043446;28;20037;-83
2022/07/07 00:03:45;;;;;;;3.58;1.27;;;;;;;;;;5043110;28;20387;-82
2022/07/07 00:06:10;;;;;;;1.98;1.23;;;;;;;;;;5049028;28;21008;-82
2022/07/07 00:08:36;;;;;;;3.17;1.33;;;;;;;;;;5048233;28;20399;-82
2022/07/07 00:11:01;;;;;;;1.95;1.20;;;;;;;;;;5041942;28;20071;-82
2022/07/07 00:13:26;;;;;;;1.40;1.30;;;;;;;;;;5027439;28;20029;-82
2022/07/07 00:15:52;;;;;;;1.27;1.17;;;;;;;;;;5026950;28;20503;-82
2022/07/07 00:18:17;;;;;;;4.13;1.25;;;;;;;;;;5014144;28;20025;-83
2022/07/07 00:20:42;;;;;;;2.80;1.40;;;;;;;;;;5007958;28;20029;-82
2022/07/07 00:23:08;;;;;;;1.58;1.30;;;;;;;;;;5021767;28;20562;-82
2022/07/07 00:25:33;;;;;;;2.03;1.33;;;;;;;;;;5035856;28;20499;-82
2022/07/07 00:27:58;;;;;;;1.50;1.40;;;;;;;;;;5036119;28;20557;-83
2022/07/07 00:30:24;;;;;;;3.20;1.70;;;;;;;;;;5025195;28;20093;-83
2022/07/07 00:32:49;;;;;;;1.33;1.23;;;;;;;;;;5041148;28;20025;-83
2022/07/07 00:35:15;;;;;;;1.95;1.40;;;;;;;;;;5035853;28;20025;-82
2022/07/07 00:37:40;;;;;;;5.32;1.60;;;;;;;;;;5039092;28;20112;-82
2022/07/07 00:40:06;;;;;;;2.42;1.50;;;;;;;;;;5022053;28;20028;-83
2022/07/07 00:42:32;;;;;;;4.35;1.73;;;;;;;;;;5052515;28;20098;-82
2022/07/07 00:44:57;;;;;;;2.95;1.50;;;;;;;;;;5048374;28;20029;-82
2022/07/07 00:47:23;;;;;;;6.03;1.73;;;;;;;;;;5031402;28;20018;-81
2022/07/07 00:49:49;;;;;;;6.63;1.65;;;;;;;;;;5022267;28;20087;-82
2022/07/07 00:52:15;;;;;;;4.60;1.40;;;;;;;;;;5008151;28;20026;-82
2022/07/07 00:54:50;;;;;;;1.63;1.45;;;;;;;;;;5016234;28;20106;-83
2022/07/07 00:57:16;;;;;;;1.52;1.38;;;;;;;;;;5019493;28;20021;-82
2022/07/07 00:59:41;;;;;;;2.28;1.60;;;;;;;;;;5032875;28;20026;-83
2022/07/07 01:02:06;;;;;;;8.48;1.50;;;;;;;;;;5036526;28;20264;-83
2022/07/07 01:04:32;;;;;;;2.05;1.58;;;;;;;;;;5034714;28;20041;-82
2022/07/07 01:06:57;;;;;;;1.77;1.60;;;;;;;;;;5029102;28;20022;-82
2022/07/07 01:09:23;;;;;;;2.03;1.58;;;;;;;;;;5026463;28;20065;-82
2022/07/07 01:11:55;;;;;;;1.73;1.45;;;;;;;;;;5019969;28;20038;-83
2022/07/07 01:14:21;;;;;;;3.80;1.52;;;;;;;;;;5016566;28;20026;-81
2022/07/07 01:16:47;;;;;;;1.88;1.50;;;;;;;;;;5003640;28;20037;-82
2022/07/07 01:19:13;;;;;;;2.20;1.40;;;;;;;;;;5034309;28;20120;-83
2022/07/07 01:21:56;;;;;;;2.75;1.40;;;;;;;;;;5007481;28;20034;-83
2022/07/07 01:24:24;;;;;;;1.50;1.40;;;;;;;;;;5017951;28;20053;-84
2022/07/07 01:26:50;;;;;;;5.50;1.30;;;;;;;;;;5020442;28;20029;-83
2022/07/07 01:29:15;;;;;;;1.65;1.52;;;;;;;;;;5035974;28;20046;-82
2022/07/07 01:31:41;;;;;;;2.58;1.52;;;;;;;;;;5019758;28;20575;-82
2022/07/07 01:34:07;;;;;;;4.07;1.40;;;;;;;;;;5027741;28;20029;-83
2022/07/07 01:36:32;;;;;;;1.38;1.27;;;;;;;;;;5036944;28;20360;-82
2022/07/07 01:38:57;;;;;;;1.70;1.60;;;;;;;;;;5028976;28;20065;-81
2022/07/07 01:41:23;;;;;;;4.65;1.52;;;;;;;;;;5031262;28;20033;-82
2022/07/07 01:43:48;;;;;;;5.60;1.77;;;;;;;;;;5021774;28;20099;-82
2022/07/07 01:46:13;;;;;;;4.90;1.48;;;;;;;;;;5014828;28;20028;-82
2022/07/07 01:48:39;;;;;;;2.75;1.50;;;;;;;;;;5015705;28;20113;-82
2022/07/07 01:51:05;;;;;;;1.88;1.50;;;;;;;;;;5013952;28;20184;-82
2022/07/07 01:53:30;;;;;;;1.50;1.40;;;;;;;;;;5017461;28;20061;-80
2022/07/07 01:56:02;;;;;;;1.92;1.40;;;;;;;;;;5038561;28;20048;-81
2022/07/07 01:58:27;;;;;;;2.45;1.70;;;;;;;;;;5046715;28;20081;-82
2022/07/07 02:00:53;;;;;;;3.42;1.55;;;;;;;;;;5023909;28;20145;-82
2022/07/07 02:03:18;;;;;;;4.15;1.60;;;;;;;;;;5014113;28;20040;-82
2022/07/07 02:05:43;;;;;;;3.95;1.30;;;;;;;;;;5031924;28;20028;-82
2022/07/07 02:08:09;;;;;;;6.85;1.60;;;;;;;;;;5038866;28;20055;-80
2022/07/07 02:13:18;;;;;;;3.00;1.58;;;;;;;;;;5041271;28;20039;-82
2022/07/07 02:15:43;;;;;;;2.00;1.50;;;;;;;;;;5024879;28;20112;-81
2022/07/07 02:18:09;;;;;;;2.10;1.50;;;;;;;;;;5041113;28;20025;-82
2022/07/07 02:20:34;;;;;;;3.15;1.63;;;;;;;;;;5035184;28;20036;-82
2022/07/07 02:22:59;;;;;;;3.10;1.38;;;;;;;;;;5014988;28;20139;-82
2022/07/07 02:25:24;;;;;;;2.95;1.50;;;;;;;;;;5039279;28;20035;-82
2022/07/07 02:27:53;;;;;;;2.38;1.63;;;;;;;;;;5020803;28;20052;-80
2022/07/07 02:30:18;;;;;;;2.92;1.35;;;;;;;;;;5022839;28;20032;-82
2022/07/07 02:32:43;;;;;;;3.80;1.30;;;;;;;;;;5020001;28;20053;-82
2022/07/07 02:35:09;;;;;;;5.70;1.50;;;;;;;;;;5029111;28;20429;-82
2022/07/07 02:37:34;;;;;;;2.03;1.23;;;;;;;;;;5021797;28;20025;-82
2022/07/07 02:39:59;;;;;;;3.17;1.40;;;;;;;;;;5023488;28;20032;-82
2022/07/07 02:42:25;;;;;;;2.05;1.23;;;;;;;;;;5042129;28;20036;-82
2022/07/07 02:44:50;;;;;;;5.10;1.30;;;;;;;;;;5037642;28;20486;-82
2022/07/07 02:47:15;;;;;;;4.15;1.30;;;;;;;;;;5039084;28;20091;-81
2022/07/07 02:49:41;;;;;;;3.47;1.50;;;;;;;;;;5034402;28;20365;-82
2022/07/07 02:52:06;;;;;;;8.60;1.40;;;;;;;;;;5022752;28;20403;-82
2022/07/07 02:54:31;;;;;;;2.85;1.33;;;;;;;;;;5009631;28;20071;-80
2022/07/07 02:56:57;;;;;;;2.08;1.50;;;;;;;;;;5041918;28;20029;-81
2022/07/07 02:59:22;;;;;;;1.73;1.42;;;;;;;;;;5020729;28;20028;-82
2022/07/07 03:01:48;;;;;;;2.92;1.90;;;;;;;;;;5038620;28;20021;-81
2022/07/07 03:04:13;;;;;;;3.03;1.30;;;;;;;;;;5035341;28;20022;-82
2022/07/07 03:06:38;;;;;;;2.85;1.38;;;;;;;;;;5042165;28;20022;-81
2022/07/07 03:09:04;;;;;;;3.85;1.60;;;;;;;;;;5036440;28;20032;-82
2022/07/07 03:11:29;;;;;;;2.58;1.42;;;;;;;;;;5025869;28;20044;-81
2022/07/07 03:13:54;;;;;;;1.60;1.20;;;;;;;;;;5026949;28;20108;-81
2022/07/07 03:16:20;;;;;;;1.52;1.42;;;;;;;;;;5019439;28;20026;-82
2022/07/07 03:18:45;;;;;;;1.58;1.25;;;;;;;;;;5015525;28;20032;-81
2022/07/07 03:21:10;;;;;;;7.15;1.42;;;;;;;;;;5036859;28;20071;-81
2022/07/07 03:23:36;;;;;;;3.20;1.63;;;;;;;;;;5019519;28;20041;-82
2022/07/07 03:26:01;;;;;;;1.52;1.42;;;;;;;;;;5009779;28;20048;-82
2022/07/07 03:28:26;;;;;;;2.30;1.20;;;;;;;;;;5018315;28;20084;-81
2022/07/07 03:30:52;;;;;;;2.05;1.45;;;;;;;;;;5015287;28;20101;-81
2022/07/07 03:33:17;;;;;;;1.45;1.10;;;;;;;;;;5035946;28;20033;-81
2022/07/07 03:35:43;;;;;;;1.58;1.48;;;;;;;;;;5046430;28;20104;-82
2022/07/07 03:38:08;;;;;;;3.90;1.40;;;;;;;;;;5033757;28;20025;-81
2022/07/07 03:40:36;;;;;;;2.97;1.60;;;;;;;;;;5038507;28;20024;-80
2022/07/07 03:43:02;;;;;;;2.10;1.77;;;;;;;;;;5020214;28;20045;-82
2022/07/07 03:45:27;;;;;;;4.78;1.52;;;;;;;;;;5036941;28;20052;-82
2022/07/07 03:47:53;;;;;;;1.98;1.25;;;;;;;;;;5027472;28;20025;-82
2022/07/07 03:50:18;;;;;;;5.40;1.50;;;;;;;;;;5035215;28;20040;-82
2022/07/07 03:52:43;;;;;;;2.17;1.63;;;;;;;;;;5005713;28;20087;-81
2022/07/07 03:55:09;;;;;;;3.15;1.88;;;;;;;;;;5022935;28;20021;-81
2022/07/07 03:57:34;;;;;;;1.95;1.58;;;;;;;;;;5038258;28;20021;-82
2022/07/07 04:00:00;;;;;;;4.15;1.42;;;;;;;;;;5020384;28;20215;-81
2022/07/07 04:02:26;;;;;;;2.42;1.30;;;;;;;;;;5038171;28;21538;-81
2022/07/07 04:04:51;;;;;;;2.97;1.70;;;;;;;;;;5014426;28;20136;-81
2022/07/07 04:07:16;;;;;;;2.05;1.38;;;;;;;;;;5042696;28;20021;-81
2022/07/07 04:09:42;;;;;;;2.35;1.40;;;;;;;;;;5008205;28;20033;-82
2022/07/07 04:12:08;;;;;;;3.17;1.50;;;;;;;;;;5034490;28;20021;-82
2022/07/07 04:14:33;;;;;;;1.52;1.20;;;;;;;;;;5024718;28;20066;-82
2022/07/07 04:16:58;;;;;;;2.97;1.50;;;;;;;;;;5026419;28;20025;-81
2022/07/07 04:19:24;;;;;;;3.10;1.35;;;;;;;;;;5033396;28;20693;-82
2022/07/07 04:21:49;;;;;;;2.78;1.05;;;;;;;;;;5020891;28;20453;-82
2022/07/07 04:24:14;;;;;;;6.03;1.30;;;;;;;;;;5009135;28;20091;-82
2022/07/07 04:26:40;;;;;;;1.20;1.17;;;;;;;;;;5026978;28;20129;-82
2022/07/07 04:29:05;;;;;;;1.60;1.20;;;;;;;;;;5022304;28;20037;-82
2022/07/07 04:31:31;;;;;;;1.33;1.10;;;;;;;;;;5029144;28;20388;-82
2022/07/07 04:33:56;;;;;;;1.13;1.10;;;;;;;;;;5031725;28;20030;-82
2022/07/07 04:36:21;;;;;;;2.03;1.15;;;;;;;;;;5045484;28;20025;-81
2022/07/07 04:38:46;;;;;;;5.00;1.30;;;;;;;;;;5019282;28;20025;-82
2022/07/07 04:41:12;;;;;;;1.50;1.40;;;;;;;;;;5003695;28;20028;-81
2022/07/07 04:43:37;;;;;;;2.47;1.40;;;;;;;;;;5028620;28;20475;-81
2022/07/07 04:46:03;;;;;;;2.47;1.23;;;;;;;;;;5037864;28;20041;-82
2022/07/07 04:48:28;;;;;;;1.98;1.27;;;;;;;;;;5038464;28;20025;-81
2022/07/07 04:50:53;;;;;;;2.15;1.10;;;;;;;;;;5038494;28;20112;-81
2022/07/07 04:53:19;;;;;;;5.10;1.50;;;;;;;;;;5024515;28;20112;-83
2022/07/07 04:55:44;;;;;;;4.55;1.30;;;;;;;;;;5020181;28;20034;-81
2022/07/07 04:58:09;;;;;;;2.70;1.10;;;;;;;;;;5021782;28;20034;-84
2022/07/07 05:00:35;;;;;;;2.47;1.35;;;;;;;;;;5019906;28;20034;-82
2022/07/07 05:03:00;;;;;;;2.63;1.20;;;;;;;;;;5024453;28;20068;-82
2022/07/07 05:05:25;;;;;;;6.22;1.05;;;;;;;;;;5043433;28;20032;-82
2022/07/07 05:07:51;;;;;;;0.90;0.90;;;;;;;;;;5035528;28;20021;-82
2022/07/07 05:10:16;;;;;;;4.75;1.20;;;;;;;;;;5028135;28;20029;-82
2022/07/07 05:12:41;;;;;;;3.15;1.27;;;;;;;;;;5040769;28;20033;-83
2022/07/07 05:15:07;;;;;;;5.10;1.30;;;;;;;;;;5018480;28;20061;-82
2022/07/07 05:17:33;;;;;;;3.25;1.50;;;;;;;;;;5025358;28;20029;-81
2022/07/07 05:19:58;;;;;;;1.77;1.20;;;;;;;;;;5028242;28;20472;-81
2022/07/07 05:22:24;;;;;;;2.33;1.17;;;;;;;;;;5024902;28;20133;-81
2022/07/07 05:24:49;;;;;;;1.90;1.17;;;;;;;;;;5002230;28;20025;-81
2022/07/07 05:27:15;;;;;;;1.80;1.42;;;;;;;;;;5001906;28;20049;-82
2022/07/07 05:29:40;;;;;;;4.10;1.48;;;;;;;;;;5027609;28;20032;-81
2022/07/07 05:32:06;;;;;;;2.28;1.17;;;;;;;;;;5036846;28;20045;-81
2022/07/07 05:34:31;;;;;;;1.20;1.00;;;;;;;;;;5035795;28;20057;-81
2022/07/07 05:36:56;;;;;;;1.27;1.08;;;;;;;;;;5044964;28;20060;-81
2022/07/07 05:39:24;;;;;;;1.30;1.20;;;;;;;;;;5038353;28;20050;-80
2022/07/07 05:41:49;;;;;;;2.00;1.10;;;;;;;;;;5032775;28;20053;-81
2022/07/07 05:44:14;;;;;;;1.70;1.20;;;;;;;;;;5020100;28;20025;-82
2022/07/07 05:46:40;;;;;;;2.90;1.42;;;;;;;;;;5021973;28;20085;-80
2022/07/07 05:49:05;;;;;;;2.83;1.20;;;;;;;;;;5033672;28;20037;-80
2022/07/07 05:51:30;;;;;;;2.92;1.02;;;;;;;;;;5001592;28;20041;-81
2022/07/07 05:53:56;;;;;;;4.32;1.33;;;;;;;;;;5019254;28;20029;-81
2022/07/07 05:56:21;;;;;;;2.35;1.08;;;;;;;;;;5036655;28;20030;-81
2022/07/07 05:58:47;;;;;;;3.10;1.23;;;;;;;;;;5031953;28;20483;-81
2022/07/07 06:01:13;;;;;;;6.90;1.10;;;;;;;;;;5027543;28;20034;-81
2022/07/07 06:03:38;;;;;;;1.95;1.00;;;;;;;;;;5038182;28;20031;-81
2022/07/07 06:06:04;;;;;;;0.93;0.90;;;;;;;;;;5045276;28;20112;-81
2022/07/07 06:08:29;;;;;;;4.85;1.25;;;;;;;;;;5013370;28;20029;-81
2022/07/07 06:10:55;;;;;;;1.85;1.05;;;;;;;;;;5042480;28;20075;-80
2022/07/07 06:13:21;;;;;;;2.78;1.10;;;;;;;;;;5036363;28;20087;-81
2022/07/07 06:15:46;;;;;;;1.23;1.10;;;;;;;;;;5026842;28;20029;-81
2022/07/07 06:18:12;;;;;;;6.75;1.85;;;;;;;;;;5038998;28;20471;-81
2022/07/07 06:20:37;;;;;;;1.52;0.75;;;;;;;;;;5027954;28;20025;-81
2022/07/07 06:23:03;;;;;;;1.15;1.00;;;;;;;;;;5011074;28;20044;-81
2022/07/07 06:25:28;;;;;;;3.97;1.33;;;;;;;;;;5036223;28;20029;-82
2022/07/07 06:27:54;;;;;;;2.10;1.13;;;;;;;;;;5037014;28;20062;-84
2022/07/07 06:30:20;;;;;;;2.75;0.90;;;;;;;;;;5026957;28;20033;-82
2022/07/07 06:32:46;;;;;;;1.17;0.77;;;;;;;;;;5036820;28;20551;-82
2022/07/07 06:35:12;;;;;;;2.72;1.30;;;;;;;;;;5035435;28;20033;-82
2022/07/07 06:37:38;;;;;;;1.42;1.02;;;;;;;;;;5037667;28;20022;-82
2022/07/07 06:40:03;;;;;;;1.42;1.15;;;;;;;;;;5034217;28;20475;-83
2022/07/07 06:42:29;;;;;;;1.25;1.15;;;;;;;;;;5037116;28;20024;-82
2022/07/07 06:44:54;;;;;;;6.30;1.27;;;;;;;;;;5035202;28;20447;-82
2022/07/07 06:47:19;;;;;;;2.78;1.25;;;;;;;;;;5028477;28;20072;-82
2022/07/07 06:49:51;;;;;;;3.47;1.40;;;;;;;;;;5046960;28;20025;-81
2022/07/07 06:52:16;;;;;;;3.72;1.42;;;;;;;;;;5027909;28;20030;-82
2022/07/07 06:54:42;;;;;;;2.10;1.20;;;;;;;;;;5022455;28;20096;-82
2022/07/07 06:57:08;;;;;;;2.92;1.30;;;;;;;;;;5025189;28;20021;-83
2022/07/07 06:59:34;;;;;;;1.50;1.20;;;;;;;;;;5021700;28;20033;-82
2022/07/07 07:02:00;;;;;;;1.45;1.00;;;;;;;;;;5031370;28;20037;-82
2022/07/07 07:04:26;;;;;;;1.73;1.00;;;;;;;;;;5034598;28;20029;-82
2022/07/07 07:06:51;;;;;;;2.70;1.20;;;;;;;;;;5037648;28;20033;-82
2022/07/07 07:09:17;;;;;;;3.88;1.30;;;;;;;;;;5033310;28;20022;-82
2022/07/07 07:11:42;;;;;;;3.05;1.50;;;;;;;;;;5035034;28;20025;-82
2022/07/07 07:14:08;;;;;;;5.20;1.50;;;;;;;;;;5035887;28;20029;-81
2022/07/07 07:16:34;;;;;;;4.13;1.75;;;;;;;;;;5006891;28;20054;-82
2022/07/07 07:18:59;;;;;;;2.55;1.40;;;;;;;;;;5015085;28;20052;-82
2022/07/07 07:21:25;;;;;;;2.20;1.20;;;;;;;;;;5020753;28;20022;-81
2022/07/07 07:23:51;;;;;;;2.38;1.40;;;;;;;;;;5022432;28;20038;-81
2022/07/07 07:26:17;;;;;;;1.25;0.90;;;;;;;;;;5010266;28;20034;-81
2022/07/07 07:28:42;;;;;;;3.35;1.23;;;;;;;;;;5035191;28;20396;-82
2022/07/07 07:31:07;;;;;;;4.45;1.40;;;;;;;;;;5020652;28;20037;-82
2022/07/07 07:33:35;;;;;;;3.38;1.20;;;;;;;;;;5026203;28;20029;-82
2022/07/07 07:36:01;;;;;;;3.03;1.35;;;;;;;;;;5036248;28;20029;-80
2022/07/07 07:38:27;;;;;;;1.90;1.15;;;;;;;;;;5035326;28;20033;-82
2022/07/07 07:40:52;;;;;;;10.15;1.77;;;;;;;;;;5018427;28;20587;-81
2022/07/07 07:43:17;;;;;;;1.83;1.33;;;;;;;;;;5018174;28;20437;-82
2022/07/07 07:45:43;;;;;;;3.97;1.60;;;;;;;;;;5018308;28;20032;-81
2022/07/07 07:48:08;;;;;;;3.35;1.38;;;;;;;;;;5030988;28;20056;-81
2022/07/07 07:50:34;;;;;;;2.90;2.05;;;;;;;;;;5007198;28;20372;-81
2022/07/07 07:53:03;;;;;;;3.80;1.25;;;;;;;;;;5017589;28;20112;-81
2022/07/07 07:55:30;;;;;;;5.20;1.42;;;;;;;;;;5019435;28;20073;-82
2022/07/07 07:57:56;;;;;;;2.63;1.65;;;;;;;;;;5036994;28;20175;-82
2022/07/07 08:00:22;;;;;;;1.17;1.08;;;;;;;;;;5026106;28;20456;-82
2022/07/07 08:02:48;;;;;;;1.40;1.15;;;;;;;;;;5024004;28;20052;-82
2022/07/07 08:05:15;;;;;;;2.33;1.40;;;;;;;;;;5041143;28;20029;-82
2022/07/07 08:07:41;;;;;;;6.78;1.45;;;;;;;;;;5037375;28;20494;-82
2022/07/07 08:10:19;;;;;;;1.67;1.38;;;;;;;;;;5032944;23;20046;-82
2022/07/07 08:12:45;;;;;;;3.67;1.30;;;;;;;;;;4990343;28;20033;-81
2022/07/07 08:15:11;;;;;;;1.30;1.20;;;;;;;;;;4994477;28;20026;-81
2022/07/07 08:17:36;;;;;;;3.85;1.60;;;;;;;;;;5011821;28;20033;-81
2022/07/07 08:20:03;;;;;;;2.05;1.20;;;;;;;;;;5005866;28;20029;-81
2022/07/07 08:22:29;;;;;;;1.35;1.25;;;;;;;;;;5017114;28;20033;-81
2022/07/07 08:24:54;;;;;;;2.70;1.60;;;;;;;;;;5018219;28;20387;-81
2022/07/07 08:27:20;;;;;;;2.47;1.50;;;;;;;;;;5016961;28;20045;-81
2022/07/07 08:29:45;;;;;;;4.30;1.83;;;;;;;;;;5017413;28;20041;-81
2022/07/07 08:32:11;;;;;;;3.03;1.80;;;;;;;;;;5017774;28;20460;-81
2022/07/07 08:34:38;;;;;;;3.05;1.58;;;;;;;;;;4998518;28;20042;-81
2022/07/07 08:37:04;;;;;;;2.88;1.90;;;;;;;;;;5009390;28;20037;-82
2022/07/07 08:39:30;;;;;;;4.45;2.30;;;;;;;;;;4995151;28;20034;-81
2022/07/07 08:41:55;;;;;;;4.53;1.77;;;;;;;;;;4996416;28;20495;-83
2022/07/07 08:44:21;;;;;;;3.10;2.15;;;;;;;;;;5016223;28;20413;-81
2022/07/07 08:46:46;;;;;;;4.93;2.03;;;;;;;;;;5015993;28;20045;-80
2022/07/07 08:49:12;;;;;;;4.45;2.42;;;;;;;;;;5010269;28;20037;-81
2022/07/07 08:51:41;;;;;;;6.00;2.28;;;;;;;;;;5015956;28;20089;-80
2022/07/07 08:54:09;;;;;;;8.25;2.45;;;;;;;;;;5015979;28;20038;-81
2022/07/07 08:56:38;;;;;;;3.55;2.63;;;;;;;;;;4996791;28;20030;-81
2022/07/07 08:59:06;;;;;;;5.43;1.92;;;;;;;;;;5012903;28;20033;-81
2022/07/07 09:01:31;;;;;;;2.28;2.08;;;;;;;;;;5017163;28;20480;-81
2022/07/07 09:03:57;;;;;;;2.70;1.25;;;;;;;;;;5014199;28;20032;-81
2022/07/07 09:06:22;;;;;;;3.08;1.52;;;;;;;;;;5015391;28;20061;-81
2022/07/07 09:08:47;;;;;;;3.78;1.50;;;;;;;;;;5007830;28;20029;-80
2022/07/07 09:11:13;;;;;;;1.95;1.10;;;;;;;;;;5007588;28;20034;-82
2022/07/07 09:13:39;;;;;;;2.90;1.25;;;;;;;;;;4998925;28;20488;-81
2022/07/07 09:16:14;;;;;;;1.38;1.08;;;;;;;;;;5017165;28;20048;-82
2022/07/07 09:18:42;;;;;;;2.10;1.38;;;;;;;;;;5007808;28;20023;-82
2022/07/07 09:21:29;;;;;;;3.78;1.48;;;;;;;;;;5017229;28;20029;-81
2022/07/07 09:24:00;;;;;;;2.78;1.98;;;;;;;;;;5017383;28;20145;-83
2022/07/07 09:26:42;;;;;;;6.45;2.20;;;;;;;;;;5016784;28;20037;-82
2022/07/07 09:29:17;;;;;;;3.40;1.80;;;;;;;;;;5017613;28;20053;-80
2022/07/07 09:31:57;;;;;;;3.28;1.98;;;;;;;;;;5013302;28;20052;-82
2022/07/07 09:34:30;;;;;;;1.75;1.52;;;;;;;;;;5005152;28;20057;-82
2022/07/07 09:39:46;;;;;;;2.72;1.20;;;;;;;;;;5016414;28;20117;-80
2022/07/07 09:42:28;;;;;;;4.40;1.50;;;;;;;;;;4999660;28;20049;-82
2022/07/07 09:44:53;;;;;;;2.20;1.50;;;;;;;;;;5007498;28;20027;-83
2022/07/07 09:47:20;;;;;;;2.08;1.30;;;;;;;;;;4998247;28;20451;-82
2022/07/07 09:49:59;;;;;;;1.35;1.17;;;;;;;;;;5011874;28;20048;-82
2022/07/07 09:52:24;;;;;;;2.10;1.52;;;;;;;;;;4999596;28;20030;-82
2022/07/07 09:54:50;;;;;;;2.45;1.48;;;;;;;;;;5016659;28;20033;-81
2022/07/07 09:57:16;;;;;;;2.22;1.50;;;;;;;;;;4999311;28;20017;-81
2022/07/07 09:59:42;;;;;;;2.30;1.40;;;;;;;;;;5013569;28;20026;-82
2022/07/07 10:02:25;;;;;;;1.27;1.20;;;;;;;;;;5013221;28;20042;-81
2022/07/07 10:04:53;;;;;;;1.35;1.25;;;;;;;;;;5003180;28;20077;-82
2022/07/07 10:07:22;;;;;;;2.35;1.40;;;;;;;;;;4990818;28;20054;-81
2022/07/07 10:09:56;;;;;;;2.65;1.40;;;;;;;;;;5003215;28;20025;-81
2022/07/07 10:12:25;;;;;;;2.53;1.58;;;;;;;;;;5019594;28;20030;-82
2022/07/07 10:14:58;;;;;;;1.55;1.45;;;;;;;;;;5020679;28;20030;-82
2022/07/07 10:17:26;;;;;;;3.03;1.23;;;;;;;;;;5016267;28;20022;-82
2022/07/07 10:19:52;;;;;;;3.85;1.70;;;;;;;;;;5014018;28;20042;-82
2022/07/07 10:22:18;;;;;;;2.63;1.30;;;;;;;;;;5021030;28;20037;-81
2022/07/07 10:24:44;;;;;;;2.13;1.50;;;;;;;;;;5018984;28;20579;-82
2022/07/07 10:27:15;;;;;;;1.95;1.25;;;;;;;;;;5019797;28;20040;-81
2022/07/07 10:29:49;;;;;;;4.25;1.30;;;;;;;;;;5019359;28;20033;-81
2022/07/07 10:32:15;;;;;;;3.75;1.48;;;;;;;;;;5001916;28;20026;-80
2022/07/07 10:34:48;;;;;;;1.50;1.40;;;;;;;;;;5013503;28;20496;-80
2022/07/07 10:37:14;;;;;;;3.35;1.40;;;;;;;;;;5014717;28;20053;-81
2022/07/07 10:39:48;;;;;;;1.83;1.65;;;;;;;;;;5016822;28;20388;-80
2022/07/07 10:42:17;;;;;;;1.65;1.30;;;;;;;;;;4999860;28;20045;-83
2022/07/07 10:44:51;;;;;;;2.97;1.40;;;;;;;;;;5018465;28;20061;-83
2022/07/07 10:47:16;;;;;;;1.50;1.30;;;;;;;;;;5013092;28;20083;-82
2022/07/07 10:49:46;;;;;;;1.98;1.30;;;;;;;;;;5009749;28;20109;-86
2022/07/07 10:52:14;;;;;;;1.30;1.20;;;;;;;;;;5018045;28;20064;-80
2022/07/07 10:54:41;;;;;;;1.58;1.48;;;;;;;;;;5001240;28;20043;-82
2022/07/07 10:57:19;;;;;;;1.20;1.10;;;;;;;;;;5013534;28;20362;-81
2022/07/07 10:59:59;;;;;;;1.48;1.15;;;;;;;;;;4998970;28;20034;-80
2022/07/07 11:02:33;;;;;;;1.92;1.25;;;;;;;;;;5005222;28;20032;-80
2022/07/07 11:05:00;;;;;;;3.35;1.10;;;;;;;;;;5011316;28;20021;-79
2022/07/07 11:07:26;;;;;;;1.30;1.20;;;;;;;;;;4992452;28;20065;-77
2022/07/07 11:10:09;;;;;;;4.82;1.20;;;;;;;;;;5015238;28;21401;-80
2022/07/07 11:12:40;;;;;;;6.65;1.40;;;;;;;;;;5010893;28;20026;-79
2022/07/07 11:15:17;;;;;;;1.67;1.13;;;;;;;;;;5013973;28;20053;-80
2022/07/07 11:17:47;;;;;;;1.85;1.23;;;;;;;;;;5003842;28;20018;-79
2022/07/07 11:20:17;;;;;;;3.38;1.60;;;;;;;;;;5017199;28;20113;-80
2022/07/07 11:22:48;;;;;;;2.95;1.20;;;;;;;;;;5018378;28;20049;-79
2022/07/07 11:25:15;;;;;;;5.07;1.67;;;;;;;;;;5018272;28;20662;-79
2022/07/07 11:27:41;;;;;;;1.55;1.20;;;;;;;;;;5000724;28;20040;-79
2022/07/07 11:30:07;;;;;;;1.67;1.58;;;;;;;;;;5009404;28;20143;-80
2022/07/07 11:32:41;;;;;;;4.72;1.50;;;;;;;;;;5009856;28;20033;-80
2022/07/07 11:35:11;;;;;;;3.20;1.23;;;;;;;;;;5007867;28;20030;-80
2022/07/07 11:37:45;;;;;;;1.55;1.23;;;;;;;;;;5013951;28;20073;-80
2022/07/07 11:40:13;;;;;;;3.05;1.65;;;;;;;;;;5010756;28;20423;-81
2022/07/07 11:42:41;;;;;;;3.83;1.90;;;;;;;;;;5012040;28;20034;-81
2022/07/07 11:45:25;;;;;;;1.85;1.35;;;;;;;;;;5004075;28;20146;-82
2022/07/07 11:47:51;;;;;;;1.73;1.33;;;;;;;;;;5008772;28;20037;-81
2022/07/07 11:50:18;;;;;;;2.30;1.70;;;;;;;;;;5018038;28;20173;-80
2022/07/07 11:52:55;;;;;;;1.48;1.33;;;;;;;;;;5017299;28;20033;-80
2022/07/07 11:55:22;;;;;;;5.47;1.30;;;;;;;;;;5013491;28;20030;-81
2022/07/07 11:57:56;;;;;;;2.70;1.90;;;;;;;;;;5011781;28;20026;-81
2022/07/07 12:00:30;;;;;;;1.95;1.40;;;;;;;;;;4993490;28;20049;-80
2022/07/07 12:02:57;;;;;;;5.18;1.55;;;;;;;;;;5004848;28;20050;-80
2022/07/07 12:05:26;;;;;;;2.72;1.88;;;;;;;;;;5011158;28;20030;-80
2022/07/07 12:07:56;;;;;;;2.38;1.52;;;;;;;;;;5022929;28;20024;-80
2022/07/07 12:10:24;;;;;;;2.53;1.60;;;;;;;;;;4998066;28;20088;-79
2022/07/07 12:13:07;;;;;;;2.10;1.58;;;;;;;;;;5015187;28;20049;-80
2022/07/07 12:15:48;;;;;;;3.42;1.45;;;;;;;;;;5015806;28;20025;-80
2022/07/07 12:18:30;;;;;;;6.43;2.00;;;;;;;;;;5019205;28;20469;-80
2022/07/07 12:20:57;;;;;;;10.07;1.88;;;;;;;;;;5001618;28;20046;-81
2022/07/07 12:23:22;;;;;;;2.22;1.80;;;;;;;;;;5015172;28;20057;-80
2022/07/07 12:25:48;;;;;;;6.07;1.90;;;;;;;;;;5020340;28;20034;-80
2022/07/07 12:28:13;;;;;;;2.50;1.75;;;;;;;;;;5011772;28;20394;-80
2022/07/07 12:30:55;;;;;;;1.83;1.48;;;;;;;;;;5014998;28;20475;-80
2022/07/07 12:33:30;;;;;;;3.28;1.88;;;;;;;;;;5001528;28;20028;-80
2022/07/07 12:36:16;;;;;;;3.42;1.60;;;;;;;;;;5020221;28;20105;-80
2022/07/07 12:38:55;;;;;;;2.28;1.45;;;;;;;;;;5017907;28;20022;-80
2022/07/07 12:41:24;;;;;;;2.42;1.60;;;;;;;;;;5001561;28;20117;-79
2022/07/07 12:43:50;;;;;;;5.57;1.75;;;;;;;;;;5013996;28;20033;-79
2022/07/07 12:46:16;;;;;;;2.88;1.73;;;;;;;;;;5010432;28;20038;-84
2022/07/07 12:48:43;;;;;;;2.50;1.70;;;;;;;;;;5006398;28;20036;-80
2022/07/07 12:51:09;;;;;;;1.77;1.55;;;;;;;;;;5022760;28;20173;-80
2022/07/07 12:53:37;;;;;;;5.18;2.10;;;;;;;;;;5022732;28;20488;-80
2022/07/07 12:56:06;;;;;;;4.18;1.65;;;;;;;;;;5001419;28;20096;-81
2022/07/07 12:58:48;;;;;;;4.15;1.58;;;;;;;;;;5022624;28;20057;-80
2022/07/07 13:01:17;;;;;;;3.85;1.58;;;;;;;;;;5004788;28;20025;-81
2022/07/07 13:03:44;;;;;;;1.77;1.67;;;;;;;;;;5006500;28;20060;-80
2022/07/07 13:06:10;;;;;;;12.70;1.95;;;;;;;;;;5006049;28;20018;-80
2022/07/07 13:08:36;;;;;;;3.55;2.20;;;;;;;;;;4988924;28;20563;-80
2022/07/07 13:11:03;;;;;;;2.22;1.63;;;;;;;;;;5005415;28;20125;-80
2022/07/07 13:13:29;;;;;;;6.20;1.83;;;;;;;;;;4986590;28;20037;-79
2022/07/07 13:15:54;;;;;;;2.05;1.48;;;;;;;;;;5016292;28;20018;-80
2022/07/07 13:18:25;;;;;;;1.60;1.50;;;;;;;;;;5007363;28;20026;-79
2022/07/07 13:20:52;;;;;;;2.38;1.92;;;;;;;;;;4995785;28;20110;-80
2022/07/07 13:23:17;;;;;;;2.25;2.00;;;;;;;;;;4996186;28;20061;-79
2022/07/07 13:25:43;;;;;;;2.85;1.83;;;;;;;;;;4995861;28;20385;-80
2022/07/07 13:28:08;;;;;;;2.33;1.70;;;;;;;;;;4995792;28;20023;-80
2022/07/07 13:30:33;;;;;;;2.15;1.50;;;;;;;;;;4996530;28;20034;-81
2022/07/07 13:32:59;;;;;;;2.13;1.65;;;;;;;;;;5005394;28;20022;-80
2022/07/07 13:35:24;;;;;;;2.45;1.80;;;;;;;;;;5004840;28;20078;-80
2022/07/07 13:37:49;;;;;;;1.67;1.50;;;;;;;;;;5013696;28;20500;-80
2022/07/07 13:40:15;;;;;;;1.42;1.30;;;;;;;;;;5000332;28;20061;-79
2022/07/07 13:42:41;;;;;;;1.17;1.10;;;;;;;;;;4978649;28;20053;-78
2022/07/07 13:45:06;;;;;;;0.88;0.88;;;;;;;;;;4984210;28;20041;-79
2022/07/07 13:47:32;;;;;;;1.20;1.08;;;;;;;;;;5017776;28;20021;-79
2022/07/07 13:49:59;;;;;;;2.03;1.00;;;;;;;;;;5012410;28;20033;-79
2022/07/07 13:52:24;;;;;;;0.98;0.85;;;;;;;;;;5020279;28;20025;-81
2022/07/07 13:54:50;;;;;;;1.92;1.05;;;;;;;;;;5001680;28;20062;-79
2022/07/07 13:57:16;;;;;;;1.70;1.13;;;;;;;;;;5018063;28;20077;-80
2022/07/07 13:59:41;;;;;;;2.47;0.95;;;;;;;;;;5018074;28;20407;-81
2022/07/07 14:02:07;;;;;;;1.67;1.25;;;;;;;;;;5013735;28;20109;-81
2022/07/07 14:04:34;;;;;;;2.28;1.30;;;;;;;;;;5000549;28;20057;-79
2022/07/07 14:06:59;;;;;;;1.60;1.48;;;;;;;;;;5010925;28;20022;-79
2022/07/07 14:09:25;;;;;;;1.38;1.17;;;;;;;;;;5011251;28;20049;-81
2022/07/07 14:11:51;;;;;;;2.83;1.20;;;;;;;;;;5001357;28;20476;-78
2022/07/07 14:14:17;;;;;;;1.35;1.23;;;;;;;;;;5012582;28;20022;-79
2022/07/07 14:16:42;;;;;;;0.90;0.90;;;;;;;;;;5009939;28;20456;-81
2022/07/07 14:19:07;;;;;;;1.17;0.80;;;;;;;;;;5007617;28;20054;-80
2022/07/07 14:21:33;;;;;;;1.13;0.95;;;;;;;;;;4999934;28;20030;-81
2022/07/07 14:23:59;;;;;;;3.03;1.00;;;;;;;;;;5050498;23;20030;-81
2022/07/07 14:26:24;;;;;;;0.73;0.73;;;;;;;;;;5023265;28;20091;-81
2022/07/07 14:28:53;;;;;;;2.22;1.00;;;;;;;;;;5031145;28;20459;-82
2022/07/07 14:31:18;;;;;;;0.93;0.93;;;;;;;;;;5025853;28;20018;-81
2022/07/07 14:33:43;;;;;;;1.35;1.08;;;;;;;;;;5014988;28;20048;-82
2022/07/07 14:36:09;;;;;;;1.73;1.40;;;;;;;;;;5051314;28;20028;-80
2022/07/07 14:38:34;;;;;;;1.60;1.40;;;;;;;;;;5038012;28;20073;-81
2022/07/07 14:41:00;;;;;;;1.58;1.38;;;;;;;;;;5041084;28;20040;-80
2022/07/07 14:43:25;;;;;;;1.70;1.60;;;;;;;;;;5041288;28;20022;-81
2022/07/07 14:45:50;;;;;;;2.03;1.52;;;;;;;;;;5041891;28;20029;-81
2022/07/07 14:48:16;;;;;;;1.60;1.38;;;;;;;;;;5040419;28;20030;-81